GCLP/LPA METAR and TAF weather

Enter ICAO airport designator
Station Type Date Time Source
GCLP METAR 2019/02/21 15:30 UTC NOAA

GCLP 211530Z 16008KT CAVOK 20/13 Q1020 NOSIG


Station Type Date Time Source
GCLP Decoded METAR 2019/02/21 15:30 UTC NOAA

Gran Canaria - Canary Islands, Spain (GCLP) 27-56N 015-23W 47M
Feb 21, 2019 - 10:30 AM EST / 2019.02.21 1530 UTC
Wind: from the SSE (160 degrees) at 9 MPH (8 KT):0
Visibility: greater than 7 mile(s):0
Temperature: 68 F (20 C)
Dew Point: 55 F (13 C)
Relative Humidity: 64%
Pressure (altimeter): 30.12 in. Hg (1020 hPa)
ob: GCLP 211530Z 16008KT CAVOK 20/13 Q1020 NOSIG
cycle: 15

Station Type Date Time Source
GCLP TAF 2019/02/21 15:27 UTC NOAA

TAF GCLP 211400Z 2115/2215 15010KT CAVOK TX23/2214Z TN15/2206Z
BECMG 2119/2121 VRB05KT


Example: see airport list